createdAt,value
2023-02-22T00:01:33.666Z,8.30
2023-02-22T00:04:00.980Z,8.30
2023-02-22T00:06:27.884Z,8.40
2023-02-22T00:08:55.882Z,8.30
2023-02-22T00:11:22.968Z,8.30
2023-02-22T00:13:50.770Z,8.30
2023-02-22T00:16:19.281Z,8.30
2023-02-22T00:18:46.190Z,8.30
2023-02-22T00:21:14.639Z,8.30
2023-02-22T00:23:46.661Z,8.30
2023-02-22T00:26:21.099Z,8.30
2023-02-22T00:28:48.942Z,8.20
2023-02-22T00:31:16.340Z,8.20
2023-02-22T00:33:43.963Z,8.20
2023-02-22T00:36:11.614Z,8.10
2023-02-22T00:38:38.662Z,8.10
2023-02-22T00:41:05.942Z,8.20
2023-02-22T00:43:33.473Z,8.20
2023-02-22T00:46:00.615Z,8.20
2023-02-22T00:48:28.550Z,8.20
2023-02-22T00:50:55.536Z,8.20
2023-02-22T00:53:26.326Z,8.10
2023-02-22T00:55:53.376Z,8.10
2023-02-22T00:58:21.181Z,8.10
2023-02-22T01:00:48.324Z,8.10
2023-02-22T01:03:18.146Z,8.00
2023-02-22T01:05:45.229Z,8.00
2023-02-22T01:08:14.392Z,8.00
2023-02-22T01:10:41.868Z,8.00
2023-02-22T01:13:09.689Z,8.00
2023-02-22T01:15:37.725Z,8.10
2023-02-22T01:18:05.427Z,8.10
2023-02-22T01:20:35.829Z,8.10
2023-02-22T01:23:04.034Z,8.10
2023-02-22T01:25:32.109Z,8.10
2023-02-22T01:27:59.869Z,8.10
2023-02-22T01:30:29.050Z,8.10
2023-02-22T01:32:56.243Z,8.10
2023-02-22T01:35:24.730Z,8.00
2023-02-22T01:37:51.707Z,8.00
2023-02-22T01:40:20.727Z,8.00
2023-02-22T01:42:48.704Z,8.00
2023-02-22T01:45:31.017Z,8.00
2023-02-22T01:48:36.649Z,8.00
2023-02-22T01:51:15.034Z,8.00
2023-02-22T01:54:02.389Z,7.90
2023-02-22T01:56:31.082Z,7.90
2023-02-22T01:59:03.597Z,7.90
2023-02-22T02:01:31.002Z,7.90
2023-02-22T02:04:00.057Z,7.90
2023-02-22T02:06:28.576Z,7.90
2023-02-22T02:08:59.416Z,7.90
2023-02-22T02:11:26.879Z,7.90
2023-02-22T02:13:57.910Z,7.90
2023-02-22T02:16:26.236Z,7.90
2023-02-22T02:18:53.494Z,7.90
2023-02-22T02:21:26.581Z,7.80
2023-02-22T02:24:11.941Z,7.80
2023-02-22T02:26:54.134Z,7.80
2023-02-22T02:29:21.042Z,7.80
2023-02-22T02:32:06.805Z,7.80
2023-02-22T02:34:33.874Z,7.60
2023-02-22T02:37:19.696Z,7.60
2023-02-22T02:39:53.266Z,7.60
2023-02-22T02:42:23.288Z,7.60
2023-02-22T02:44:55.983Z,7.60
2023-02-22T02:47:31.357Z,7.60
2023-02-22T02:50:13.663Z,7.60
2023-02-22T02:52:41.170Z,7.60
2023-02-22T02:55:08.723Z,7.60
2023-02-22T02:57:35.772Z,7.60
2023-02-22T03:00:02.711Z,7.60
2023-02-22T03:02:29.558Z,7.60
2023-02-22T03:05:08.602Z,7.60
2023-02-22T03:07:38.756Z,7.60
2023-02-22T03:10:21.585Z,7.60
2023-02-22T03:12:51.406Z,7.60
2023-02-22T03:15:32.680Z,7.60
2023-02-22T03:18:06.921Z,7.50
2023-02-22T03:20:33.867Z,7.50
2023-02-22T03:23:04.798Z,7.60
2023-02-22T03:25:35.730Z,7.50
2023-02-22T03:28:11.728Z,7.50
2023-02-22T03:30:41.098Z,7.50
2023-02-22T03:33:14.396Z,7.50
2023-02-22T03:35:44.791Z,7.50
2023-02-22T03:38:13.201Z,7.40
2023-02-22T03:40:43.628Z,7.30
2023-02-22T03:43:15.907Z,7.30
2023-02-22T03:45:44.163Z,7.30
2023-02-22T03:48:23.432Z,7.30
2023-02-22T03:50:51.243Z,7.30
2023-02-22T03:53:20.017Z,7.30
2023-02-22T03:55:51.793Z,7.30
2023-02-22T03:58:20.806Z,7.30
2023-02-22T04:00:53.390Z,7.20
2023-02-22T04:03:20.895Z,7.30
2023-02-22T04:05:48.191Z,7.30
2023-02-22T04:08:15.302Z,7.30
2023-02-22T04:10:42.183Z,7.30
2023-02-22T04:13:10.448Z,7.30
2023-02-22T04:15:37.418Z,7.30
2023-02-22T04:18:04.520Z,7.30
2023-02-22T04:20:31.924Z,7.30
2023-02-22T04:22:58.815Z,7.30
2023-02-22T04:25:25.684Z,7.30
2023-02-22T04:27:52.955Z,7.20
2023-02-22T04:30:20.261Z,7.20
2023-02-22T04:32:47.258Z,7.20
2023-02-22T04:35:15.292Z,7.20
2023-02-22T04:37:42.255Z,7.20
2023-02-22T04:40:09.645Z,7.20
2023-02-22T04:42:36.841Z,7.20
2023-02-22T04:45:05.252Z,7.30
2023-02-22T04:47:32.185Z,7.30
2023-02-22T04:50:00.550Z,7.20
2023-02-22T04:52:27.997Z,7.30
2023-02-22T04:54:54.962Z,7.20
2023-02-22T04:57:21.846Z,7.20
2023-02-22T04:59:48.869Z,7.30
2023-02-22T05:02:15.976Z,7.20
2023-02-22T05:04:43.091Z,7.20
2023-02-22T05:07:09.989Z,7.20
2023-02-22T05:09:37.189Z,7.10
2023-02-22T05:12:06.710Z,7.20
2023-02-22T05:14:33.674Z,7.10
2023-02-22T05:17:00.847Z,7.20
2023-02-22T05:19:27.810Z,7.10
2023-02-22T05:21:56.702Z,7.20
2023-02-22T05:24:23.720Z,7.10
2023-02-22T05:26:51.486Z,7.10
2023-02-22T05:29:18.525Z,7.10
2023-02-22T05:31:45.605Z,7.10
2023-02-22T05:34:12.597Z,7.10
2023-02-22T05:36:39.552Z,7.10
2023-02-22T05:39:06.516Z,7.10
2023-02-22T05:41:33.533Z,7.10
2023-02-22T05:44:00.587Z,7.10
2023-02-22T05:46:27.572Z,7.10
2023-02-22T05:48:54.506Z,7.10
2023-02-22T05:51:21.524Z,7.10
2023-02-22T05:53:48.426Z,7.10
2023-02-22T05:56:20.486Z,7.10
2023-02-22T05:58:47.393Z,7.20
2023-02-22T06:01:14.344Z,7.10
2023-02-22T06:03:41.225Z,7.10
2023-02-22T06:06:08.409Z,7.10
2023-02-22T06:08:35.348Z,7.10
2023-02-22T06:11:02.214Z,7.10
2023-02-22T06:13:29.159Z,7.10
2023-02-22T06:15:56.089Z,7.10
2023-02-22T06:18:23.029Z,7.00
2023-02-22T06:20:51.399Z,7.00
2023-02-22T06:23:18.369Z,7.00
2023-02-22T06:25:45.491Z,6.90
2023-02-22T06:28:12.649Z,6.90
2023-02-22T06:30:40.929Z,6.80
2023-02-22T06:33:07.967Z,6.70
2023-02-22T06:35:34.920Z,6.70
2023-02-22T06:38:02.606Z,6.60
2023-02-22T06:40:29.921Z,6.60
2023-02-22T06:42:57.614Z,6.60
2023-02-22T06:45:24.581Z,6.60
2023-02-22T06:47:51.697Z,6.60
2023-02-22T06:50:24.452Z,6.60
2023-02-22T06:52:51.498Z,6.50
2023-02-22T06:55:22.528Z,6.50
2023-02-22T06:57:49.806Z,6.60
2023-02-22T07:00:19.002Z,6.50
2023-02-22T07:02:46.753Z,6.50
2023-02-22T07:05:13.694Z,6.50
2023-02-22T07:07:40.651Z,6.50
2023-02-22T07:10:08.507Z,6.40
2023-02-22T07:12:35.686Z,6.50
2023-02-22T07:15:02.646Z,6.60
2023-02-22T07:17:29.585Z,6.60
2023-02-22T07:19:56.804Z,6.60
2023-02-22T07:22:23.876Z,6.60
2023-02-22T07:24:50.796Z,6.50
2023-02-22T07:27:17.940Z,6.50
2023-02-22T07:29:45.055Z,6.50
2023-02-22T07:32:12.076Z,6.50
2023-02-22T07:34:39.068Z,6.60
2023-02-22T07:37:06.012Z,6.70
2023-02-22T07:39:33.890Z,6.70
2023-02-22T07:42:01.214Z,6.80
2023-02-22T07:44:28.128Z,6.80
2023-02-22T07:46:55.034Z,6.80
2023-02-22T07:49:21.930Z,6.80
2023-02-22T07:51:48.820Z,6.80
2023-02-22T07:54:15.675Z,6.90
2023-02-22T07:56:48.776Z,6.90
2023-02-22T07:59:16.519Z,6.90
2023-02-22T08:01:43.562Z,6.80
2023-02-22T08:04:10.502Z,6.90
2023-02-22T08:06:37.493Z,6.90
2023-02-22T08:09:04.473Z,7.00
2023-02-22T08:11:31.460Z,7.00
2023-02-22T08:13:58.482Z,7.00
2023-02-22T08:16:25.584Z,7.00
2023-02-22T08:18:52.688Z,7.10
2023-02-22T08:21:19.777Z,7.20
2023-02-22T08:23:51.286Z,7.30
2023-02-22T08:26:18.742Z,7.30
2023-02-22T08:28:45.709Z,7.40
2023-02-22T08:31:12.941Z,7.50
2023-02-22T08:33:42.676Z,7.50
2023-02-22T08:36:09.820Z,7.60
2023-02-22T08:38:38.007Z,7.70
2023-02-22T08:41:05.247Z,7.80
2023-02-22T08:43:32.160Z,7.80
2023-02-22T08:45:59.122Z,7.90
2023-02-22T08:48:26.087Z,8.00
2023-02-22T08:50:53.008Z,8.10
2023-02-22T08:53:19.952Z,8.20
2023-02-22T08:55:46.935Z,8.30
2023-02-22T08:58:14.368Z,8.30
2023-02-22T09:00:41.942Z,8.30
2023-02-22T09:03:12.558Z,8.40
2023-02-22T09:05:39.943Z,8.40
2023-02-22T09:08:06.853Z,8.40
2023-02-22T09:10:34.281Z,8.40
2023-02-22T09:13:02.572Z,8.40
2023-02-22T09:15:30.374Z,8.50
2023-02-22T09:17:57.472Z,8.50
2023-02-22T09:20:24.934Z,8.60
2023-02-22T09:22:52.214Z,8.70
2023-02-22T09:25:20.814Z,8.80
2023-02-22T09:27:54.581Z,8.80
2023-02-22T09:30:32.503Z,8.90
2023-02-22T09:33:00.659Z,9.00
2023-02-22T09:35:27.835Z,9.00
2023-02-22T09:37:55.557Z,9.10
2023-02-22T09:40:26.073Z,9.20
2023-02-22T09:42:56.964Z,9.20
2023-02-22T09:45:28.143Z,9.20
2023-02-22T09:48:05.282Z,9.20
2023-02-22T09:50:44.503Z,9.20
2023-02-22T09:53:29.979Z,9.30
2023-02-22T09:56:02.131Z,9.40
2023-02-22T09:58:33.735Z,9.40
2023-02-22T10:01:15.894Z,9.40
2023-02-22T10:03:45.933Z,9.50
2023-02-22T10:06:15.567Z,9.50
2023-02-22T10:08:45.060Z,9.50
2023-02-22T10:11:12.077Z,9.60
2023-02-22T10:13:54.988Z,9.60
2023-02-22T10:16:34.847Z,9.60
2023-02-22T10:19:15.277Z,9.60
2023-02-22T10:21:42.836Z,9.60
2023-02-22T10:24:12.795Z,9.70
2023-02-22T10:26:44.073Z,9.70
2023-02-22T10:29:14.737Z,9.70
2023-02-22T10:31:44.343Z,9.70
2023-02-22T10:34:14.362Z,9.70
2023-02-22T10:36:42.325Z,9.70
2023-02-22T10:39:27.466Z,9.80
2023-02-22T10:41:56.707Z,9.80
2023-02-22T10:44:23.862Z,9.80
2023-02-22T10:46:51.130Z,9.90
2023-02-22T10:49:22.693Z,9.90
2023-02-22T10:52:03.437Z,9.90
2023-02-22T10:54:39.005Z,9.90
2023-02-22T10:57:05.928Z,10.00
2023-02-22T10:59:33.361Z,10.00
2023-02-22T11:02:32.705Z,10.00
2023-02-22T11:05:05.089Z,10.00
2023-02-22T11:07:33.233Z,10.10
2023-02-22T11:10:01.416Z,10.10
2023-02-22T11:12:38.886Z,10.20
2023-02-22T11:15:17.756Z,10.30
2023-02-22T11:17:48.123Z,10.30
2023-02-22T11:20:28.567Z,10.40
2023-02-22T11:23:01.234Z,10.50
2023-02-22T11:25:36.311Z,10.50
2023-02-22T11:28:15.393Z,10.60
2023-02-22T11:30:45.715Z,10.70
2023-02-22T11:33:24.154Z,10.80
2023-02-22T11:36:02.571Z,10.90
2023-02-22T11:38:30.672Z,11.00
2023-02-22T11:41:18.362Z,11.10
2023-02-22T11:43:54.652Z,11.20
2023-02-22T11:46:22.839Z,11.30
2023-02-22T11:49:01.491Z,11.40
2023-02-22T11:51:47.116Z,11.50
2023-02-22T11:54:14.120Z,11.50
2023-02-22T11:56:44.806Z,11.60
2023-02-22T11:59:36.841Z,11.60
2023-02-22T12:02:13.302Z,11.70
2023-02-22T12:04:47.965Z,11.80
2023-02-22T12:07:19.065Z,11.90
2023-02-22T12:09:46.009Z,11.90
2023-02-22T12:12:19.156Z,12.00
2023-02-22T12:14:48.853Z,12.00
2023-02-22T12:17:26.314Z,12.00
2023-02-22T12:19:56.288Z,12.00
2023-02-22T12:22:25.827Z,12.00
2023-02-22T12:25:08.597Z,12.00
2023-02-22T12:27:56.430Z,11.90
2023-02-22T12:30:38.754Z,12.00
2023-02-22T12:33:12.073Z,12.00
2023-02-22T12:35:40.594Z,12.00
2023-02-22T12:38:18.272Z,12.00
2023-02-22T12:40:54.066Z,12.10
2023-02-22T12:43:24.018Z,12.10
2023-02-22T12:45:57.512Z,12.10
2023-02-22T12:48:40.810Z,12.20
2023-02-22T12:51:28.114Z,12.30
2023-02-22T12:54:15.282Z,12.30
2023-02-22T12:56:45.499Z,12.30
2023-02-22T12:59:19.421Z,12.40
2023-02-22T13:01:49.642Z,12.50
2023-02-22T13:04:20.882Z,12.50
2023-02-22T13:06:48.783Z,12.50
2023-02-22T13:09:34.633Z,12.50
2023-02-22T13:12:27.787Z,12.50
2023-02-22T13:15:13.514Z,12.60
2023-02-22T13:17:40.459Z,12.70
2023-02-22T13:20:34.395Z,12.60
2023-02-22T13:23:05.358Z,12.70
2023-02-22T13:25:37.538Z,12.70
2023-02-22T13:28:13.377Z,12.70
2023-02-22T13:30:42.344Z,12.80
2023-02-22T13:33:17.966Z,12.80
2023-02-22T13:35:56.955Z,12.80
2023-02-22T13:38:53.798Z,12.80
2023-02-22T13:41:39.374Z,12.80
2023-02-22T13:44:06.287Z,12.80
2023-02-22T13:46:33.281Z,12.80
2023-02-22T13:49:18.953Z,12.80
2023-02-22T13:51:50.259Z,12.80
2023-02-22T13:54:23.473Z,12.80
2023-02-22T13:56:51.869Z,12.80
2023-02-22T13:59:24.329Z,12.90
2023-02-22T14:01:53.642Z,12.90
2023-02-22T14:04:22.623Z,12.90
2023-02-22T14:06:49.854Z,12.80
2023-02-22T14:09:20.112Z,12.80
2023-02-22T14:11:47.829Z,12.80
2023-02-22T14:14:17.371Z,12.80
2023-02-22T14:16:44.644Z,12.80
2023-02-22T14:19:16.860Z,12.70
2023-02-22T14:22:03.085Z,12.70
2023-02-22T14:24:40.548Z,12.70
2023-02-22T14:27:07.461Z,12.70
2023-02-22T14:29:34.401Z,12.70
2023-02-22T14:32:03.325Z,12.70
2023-02-22T14:34:39.178Z,12.70
2023-02-22T14:37:12.192Z,12.70
2023-02-22T14:39:51.252Z,12.70
2023-02-22T14:42:27.521Z,12.70
2023-02-22T14:45:00.778Z,12.70
2023-02-22T14:47:29.849Z,12.60
2023-02-22T14:50:05.419Z,12.60
2023-02-22T14:52:35.199Z,12.60
2023-02-22T14:55:22.728Z,12.60
2023-02-22T14:58:10.158Z,12.50
2023-02-22T15:00:42.129Z,12.50
2023-02-22T15:03:29.319Z,12.50
2023-02-22T15:05:59.984Z,12.40
2023-02-22T15:08:28.683Z,12.40
2023-02-22T15:10:55.702Z,12.40
2023-02-22T15:13:26.642Z,12.40
2023-02-22T15:16:02.146Z,12.40
2023-02-22T15:18:37.572Z,12.60
2023-02-22T15:21:13.467Z,12.70
2023-02-22T15:23:51.172Z,12.80
2023-02-22T15:26:30.528Z,12.90
2023-02-22T15:28:58.429Z,12.90
2023-02-22T15:31:33.262Z,13.00
2023-02-22T15:34:29.584Z,12.90
2023-02-22T15:36:57.911Z,12.90
2023-02-22T15:39:27.285Z,12.90
2023-02-22T15:42:04.921Z,12.90
2023-02-22T15:44:44.505Z,12.90
2023-02-22T15:47:22.251Z,12.90
2023-02-22T15:50:08.580Z,12.80
2023-02-22T15:52:36.244Z,12.80
2023-02-22T15:55:04.084Z,12.90
2023-02-22T15:57:35.123Z,12.80
2023-02-22T16:00:02.428Z,12.80
2023-02-22T16:02:31.214Z,12.80
2023-02-22T16:05:07.356Z,12.80
2023-02-22T16:07:37.485Z,12.70
2023-02-22T16:10:09.481Z,12.70
2023-02-22T16:12:36.583Z,12.70
2023-02-22T16:15:04.241Z,12.80
2023-02-22T16:17:41.177Z,12.80
2023-02-22T16:20:13.427Z,12.80
2023-02-22T16:22:41.246Z,12.80
2023-02-22T16:25:18.838Z,12.70
2023-02-22T16:27:53.174Z,12.70
2023-02-22T16:30:25.242Z,12.70
2023-02-22T16:32:53.787Z,12.70
2023-02-22T16:35:20.849Z,12.70
2023-02-22T16:37:49.116Z,12.70
2023-02-22T16:40:23.736Z,12.70
2023-02-22T16:42:51.792Z,12.60
2023-02-22T16:45:19.773Z,12.50
2023-02-22T16:47:46.746Z,12.50
2023-02-22T16:50:14.592Z,12.50
2023-02-22T16:52:42.089Z,12.50
2023-02-22T16:55:20.595Z,12.50
2023-02-22T16:57:49.043Z,12.50
2023-02-22T17:00:18.033Z,12.50
2023-02-22T17:02:45.618Z,12.50
2023-02-22T17:05:14.757Z,12.40
2023-02-22T17:07:42.444Z,12.50
2023-02-22T17:10:14.904Z,12.50
2023-02-22T17:12:44.236Z,12.50
2023-02-22T17:15:22.559Z,12.50
2023-02-22T17:17:53.006Z,12.50
2023-02-22T17:20:30.256Z,12.40
2023-02-22T17:23:01.502Z,12.50
2023-02-22T17:25:37.763Z,12.50
2023-02-22T17:28:05.288Z,12.40
2023-02-22T17:30:33.137Z,12.40
2023-02-22T17:33:06.853Z,12.40
2023-02-22T17:35:36.890Z,12.40
2023-02-22T17:38:06.437Z,12.40
2023-02-22T17:40:34.419Z,12.20
2023-02-22T17:43:02.067Z,12.20
2023-02-22T17:45:29.417Z,12.10
2023-02-22T17:47:58.809Z,12.10
2023-02-22T17:50:26.049Z,12.00
2023-02-22T17:52:53.018Z,12.00
2023-02-22T17:55:20.776Z,12.00
2023-02-22T17:57:49.031Z,12.00
2023-02-22T18:00:23.375Z,12.00
2023-02-22T18:02:51.634Z,12.00
2023-02-22T18:05:18.991Z,12.00
2023-02-22T18:07:46.222Z,12.00
2023-02-22T18:10:13.691Z,12.00
2023-02-22T18:12:41.038Z,12.00
2023-02-22T18:15:09.212Z,12.00
2023-02-22T18:17:36.777Z,12.00
2023-02-22T18:20:11.836Z,12.00
2023-02-22T18:22:42.230Z,11.90
2023-02-22T18:25:14.492Z,11.90
2023-02-22T18:27:45.128Z,11.90
2023-02-22T18:30:12.603Z,11.90
2023-02-22T18:32:39.944Z,11.90
2023-02-22T18:35:06.997Z,11.90
2023-02-22T18:37:34.556Z,11.90
2023-02-22T18:40:01.630Z,11.90
2023-02-22T18:42:28.642Z,11.90
2023-02-22T18:45:00.914Z,11.90
2023-02-22T18:47:28.159Z,11.90
2023-02-22T18:49:55.130Z,11.80
2023-02-22T18:52:22.140Z,11.80
2023-02-22T18:54:49.488Z,11.80
2023-02-22T18:57:17.161Z,11.80
2023-02-22T18:59:44.335Z,11.70
2023-02-22T19:02:13.155Z,11.70
2023-02-22T19:04:40.397Z,11.70
2023-02-22T19:07:07.390Z,11.70
2023-02-22T19:09:34.367Z,11.70
2023-02-22T19:12:02.129Z,11.70
2023-02-22T19:14:29.155Z,11.70
2023-02-22T19:16:59.262Z,11.70
2023-02-22T19:19:26.748Z,11.70
2023-02-22T19:21:56.547Z,11.60
2023-02-22T19:24:23.701Z,11.60
2023-02-22T19:26:50.921Z,11.60
2023-02-22T19:29:18.826Z,11.60
2023-02-22T19:31:47.872Z,11.60
2023-02-22T19:34:15.665Z,11.60
2023-02-22T19:36:46.074Z,11.60
2023-02-22T19:39:14.066Z,11.60
2023-02-22T19:41:41.088Z,11.60
2023-02-22T19:44:09.127Z,11.60
2023-02-22T19:46:36.345Z,11.60
2023-02-22T19:49:03.455Z,11.60
2023-02-22T19:51:31.128Z,11.60
2023-02-22T19:54:02.725Z,11.50
2023-02-22T19:56:31.248Z,11.50
2023-02-22T19:58:59.759Z,11.50
2023-02-22T20:01:27.971Z,11.50
2023-02-22T20:04:00.101Z,11.50
2023-02-22T20:06:28.762Z,11.50
2023-02-22T20:08:56.102Z,11.40
2023-02-22T20:11:23.677Z,11.40
2023-02-22T20:13:51.147Z,11.40
2023-02-22T20:16:18.148Z,11.40
2023-02-22T20:18:47.080Z,11.40
2023-02-22T20:21:19.193Z,11.40
2023-02-22T20:23:46.538Z,11.40
2023-02-22T20:26:18.071Z,11.40
2023-02-22T20:28:45.597Z,11.40
2023-02-22T20:31:14.008Z,11.30
2023-02-22T20:33:42.031Z,11.30
2023-02-22T20:36:13.391Z,11.30
2023-02-22T20:38:40.736Z,11.30
2023-02-22T20:41:08.607Z,11.30
2023-02-22T20:43:38.190Z,11.20
2023-02-22T20:46:05.808Z,11.20
2023-02-22T20:48:33.470Z,11.20
2023-02-22T20:51:10.853Z,11.20
2023-02-22T20:53:42.105Z,11.20
2023-02-22T20:56:13.207Z,11.20
2023-02-22T21:01:27.369Z,11.20
2023-02-22T21:03:54.295Z,11.20
2023-02-22T21:06:22.039Z,11.20
2023-02-22T21:08:53.985Z,11.20
2023-02-22T21:11:21.322Z,11.10
2023-02-22T21:13:48.454Z,11.10
2023-02-22T21:16:19.773Z,11.10
2023-02-22T21:18:46.777Z,11.10
2023-02-22T21:21:13.828Z,11.10
2023-02-22T21:23:40.941Z,11.10
2023-02-22T21:26:13.422Z,11.10
2023-02-22T21:28:50.886Z,11.10
2023-02-22T21:31:20.326Z,11.00
2023-02-22T21:33:49.429Z,11.00
2023-02-22T21:36:16.351Z,10.90
2023-02-22T21:38:44.318Z,10.90
2023-02-22T21:41:15.936Z,10.90
2023-02-22T21:43:43.908Z,10.90
2023-02-22T21:46:11.056Z,10.90
2023-02-22T21:48:38.996Z,11.00
2023-02-22T21:51:14.286Z,11.00
2023-02-22T21:53:48.209Z,11.00
2023-02-22T21:56:16.478Z,11.00
2023-02-22T21:58:46.479Z,10.90
2023-02-22T22:01:17.844Z,10.90
2023-02-22T22:03:45.563Z,10.90
2023-02-22T22:06:13.786Z,10.90
2023-02-22T22:08:41.468Z,10.90
2023-02-22T22:11:09.821Z,10.90
2023-02-22T22:13:40.674Z,10.90
2023-02-22T22:16:12.205Z,10.90
2023-02-22T22:18:39.966Z,10.90
2023-02-22T22:21:11.166Z,10.90
2023-02-22T22:23:41.664Z,10.90
2023-02-22T22:26:12.095Z,10.90
2023-02-22T22:28:42.888Z,11.00
2023-02-22T22:31:10.812Z,10.90
2023-02-22T22:33:38.269Z,10.90
2023-02-22T22:36:06.216Z,10.90
2023-02-22T22:38:33.836Z,10.90
2023-02-22T22:41:01.512Z,10.90
2023-02-22T22:43:29.300Z,10.90
2023-02-22T22:45:59.191Z,10.90
2023-02-22T22:48:27.259Z,10.90
2023-02-22T22:51:06.685Z,10.90
2023-02-22T22:53:34.461Z,10.90
2023-02-22T22:56:04.093Z,10.90
2023-02-22T22:58:32.353Z,10.80
2023-02-22T23:01:01.773Z,10.80
2023-02-22T23:03:28.802Z,10.80
2023-02-22T23:05:55.960Z,10.80
2023-02-22T23:08:29.404Z,10.80
2023-02-22T23:10:57.098Z,10.80
2023-02-22T23:13:25.199Z,10.80
2023-02-22T23:15:54.969Z,10.80
2023-02-22T23:18:22.149Z,10.80
2023-02-22T23:20:55.441Z,10.80
2023-02-22T23:23:23.482Z,10.80
2023-02-22T23:26:00.716Z,10.80
2023-02-22T23:28:27.802Z,10.80
2023-02-22T23:30:57.308Z,10.80
2023-02-22T23:33:24.393Z,10.80
2023-02-22T23:35:51.347Z,10.80
2023-02-22T23:38:18.351Z,10.80
2023-02-22T23:40:46.313Z,10.80
2023-02-22T23:43:13.321Z,10.80
2023-02-22T23:45:40.306Z,10.80
2023-02-22T23:48:07.223Z,10.70
2023-02-22T23:50:36.887Z,10.80
2023-02-22T23:53:03.867Z,10.80
2023-02-22T23:55:32.180Z,10.80
2023-02-22T23:57:59.734Z,10.80
